Time;durP1;ratioP1;P1;durP2;ratioP2;P2;SDS_P1;SDS_P2;PMS_P1;PMS_P2;Temp;Humidity;BMP_temperature;BMP_pressure;BME280_temperature;BME280_humidity;BME280_pressure;Samples;Min_cycle;Max_cycle;Signal;HPM_P1;HPM_P2
2021/11/30 05:01:19;;;;;;;5.95;5.35;;;3.60;99.90;;;;;;5599873;23;20361;-71
2021/11/30 05:03:46;;;;;;;4.50;4.10;;;3.60;99.90;;;;;;5010274;28;20224;-71
2021/11/30 05:06:13;;;;;;;4.32;3.92;;;3.60;99.90;;;;;;4991389;28;20731;-71
2021/11/30 05:08:40;;;;;;;4.55;4.32;;;3.70;99.90;;;;;;5000023;28;20199;-70
2021/11/30 05:11:07;;;;;;;4.68;4.28;;;3.70;99.90;;;;;;5000241;28;20320;-71
2021/11/30 05:13:34;;;;;;;4.53;4.32;;;3.70;99.90;;;;;;4976958;28;20208;-71
2021/11/30 05:16:00;;;;;;;4.40;4.20;;;3.70;99.90;;;;;;4984964;28;20569;-71
2021/11/30 05:18:28;;;;;;;4.30;3.92;;;3.70;99.90;;;;;;4986869;28;20204;-71
2021/11/30 05:20:59;;;;;;;4.10;3.83;;;3.70;99.90;;;;;;4974553;28;20232;-71
2021/11/30 05:23:28;;;;;;;3.95;3.72;;;3.60;99.90;;;;;;4982588;28;20219;-70
2021/11/30 05:25:55;;;;;;;3.80;3.60;;;3.70;99.90;;;;;;5024853;23;20235;-71
2021/11/30 05:28:23;;;;;;;3.60;3.40;;;3.70;99.90;;;;;;5010881;28;20203;-70
2021/11/30 05:30:50;;;;;;;3.80;3.60;;;3.70;99.90;;;;;;5013929;28;20238;-70
2021/11/30 05:33:17;;;;;;;3.92;3.63;;;3.70;99.90;;;;;;5008273;28;20604;-69
2021/11/30 05:35:45;;;;;;;3.60;3.40;;;3.70;99.90;;;;;;4993946;28;20751;-71
2021/11/30 05:38:12;;;;;;;3.55;3.35;;;3.70;99.90;;;;;;5000282;28;20204;-70
2021/11/30 05:40:41;;;;;;;3.97;3.78;;;3.60;99.90;;;;;;4995050;28;20296;-72
2021/11/30 05:43:08;;;;;;;4.03;3.83;;;3.70;99.90;;;;;;4997640;28;20247;-70
2021/11/30 05:45:34;;;;;;;4.03;3.80;;;3.70;99.90;;;;;;5002503;28;20230;-70
2021/11/30 05:48:01;;;;;;;4.53;4.30;;;3.70;99.90;;;;;;5007774;28;20617;-70
2021/11/30 05:50:28;;;;;;;3.58;3.38;;;3.70;99.90;;;;;;5002945;28;20203;-70
2021/11/30 05:52:57;;;;;;;3.00;2.85;;;3.70;99.90;;;;;;5004971;28;20214;-71
2021/11/30 05:55:23;;;;;;;3.88;3.65;;;3.70;99.90;;;;;;5004760;28;20224;-70
2021/11/30 05:57:50;;;;;;;4.13;3.92;;;3.80;99.90;;;;;;5004201;28;20231;-69
2021/11/30 06:00:17;;;;;;;4.75;4.45;;;3.80;99.90;;;;;;5005549;28;20372;-70
2021/11/30 06:03:01;;;;;;;4.55;4.25;;;3.90;99.90;;;;;;5013593;28;20704;-70
2021/11/30 06:05:29;;;;;;;4.78;4.57;;;3.90;99.90;;;;;;5008369;28;20240;-71
2021/11/30 06:07:57;;;;;;;5.20;4.80;;;4.00;99.90;;;;;;4999528;28;20282;-71
2021/11/30 06:10:25;;;;;;;5.75;5.35;;;3.90;99.90;;;;;;4996918;28;20238;-70
2021/11/30 06:12:52;;;;;;;4.47;4.28;;;3.90;99.90;;;;;;4998143;28;20676;-70
2021/11/30 06:15:19;;;;;;;4.47;4.28;;;4.00;99.90;;;;;;5010650;28;20232;-72
2021/11/30 06:17:46;;;;;;;4.65;4.25;;;4.00;99.90;;;;;;4998106;28;20207;-72
2021/11/30 06:20:13;;;;;;;4.88;4.55;;;4.00;99.90;;;;;;5000172;28;20295;-71
2021/11/30 06:22:41;;;;;;;5.25;4.75;;;4.00;99.90;;;;;;5013511;28;20234;-71
2021/11/30 06:25:10;;;;;;;5.25;4.95;;;4.10;99.90;;;;;;5002102;28;20286;-71
2021/11/30 06:27:37;;;;;;;4.55;4.35;;;4.10;99.90;;;;;;5001708;28;20239;-71
2021/11/30 06:30:05;;;;;;;3.28;3.08;;;4.10;99.90;;;;;;5012728;28;20206;-72
2021/11/30 06:32:32;;;;;;;5.35;4.85;;;4.20;99.90;;;;;;4999543;28;20734;-71
2021/11/30 06:34:59;;;;;;;6.25;5.65;;;4.20;99.90;;;;;;4994185;28;20228;-71
2021/11/30 06:37:25;;;;;;;6.57;6.05;;;4.20;99.90;;;;;;5000740;28;20609;-70
2021/11/30 06:39:53;;;;;;;6.63;6.10;;;4.20;99.90;;;;;;5009647;28;20204;-71
2021/11/30 06:42:21;;;;;;;6.15;5.65;;;4.30;99.90;;;;;;5007858;28;20294;-71
2021/11/30 06:44:48;;;;;;;5.78;5.35;;;4.30;99.90;;;;;;4998862;28;20297;-71
2021/11/30 06:47:15;;;;;;;8.07;7.30;;;4.40;99.90;;;;;;5005749;28;20203;-71
2021/11/30 06:49:42;;;;;;;6.75;6.15;;;4.40;99.90;;;;;;4994870;28;20210;-71
2021/11/30 06:52:09;;;;;;;8.77;7.20;;;4.40;99.90;;;;;;5000669;28;20219;-71
2021/11/30 06:54:35;;;;;;;7.22;6.70;;;4.40;99.90;;;;;;5011257;28;20235;-70
2021/11/30 06:57:02;;;;;;;7.55;6.18;;;4.50;99.90;;;;;;5012181;28;20207;-71
2021/11/30 06:59:30;;;;;;;8.90;6.80;;;4.50;99.90;;;;;;4999646;28;20207;-72
2021/11/30 07:01:57;;;;;;;6.80;6.18;;;4.60;99.90;;;;;;5009331;28;20203;-71
2021/11/30 07:04:24;;;;;;;8.23;7.53;;;4.60;99.90;;;;;;5002836;28;20541;-72
2021/11/30 07:07:00;;;;;;;8.15;7.35;;;4.60;99.90;;;;;;5011419;28;20411;-70
2021/11/30 07:09:36;;;;;;;7.95;7.25;;;4.70;99.90;;;;;;4996538;28;20212;-71
2021/11/30 07:12:09;;;;;;;7.45;6.65;;;4.70;99.90;;;;;;4998602;28;20242;-71
2021/11/30 07:14:37;;;;;;;6.38;5.78;;;4.70;99.90;;;;;;5003521;28;20222;-70
2021/11/30 07:17:04;;;;;;;8.55;7.82;;;4.80;99.90;;;;;;5007139;28;20208;-70
2021/11/30 07:19:32;;;;;;;6.35;5.50;;;4.80;99.90;;;;;;4999341;28;20200;-72
2021/11/30 07:21:59;;;;;;;6.35;5.82;;;4.90;99.90;;;;;;4998589;28;20208;-71
2021/11/30 07:24:26;;;;;;;7.53;6.90;;;4.90;99.90;;;;;;4991343;28;20226;-71
2021/11/30 07:26:53;;;;;;;7.55;6.85;;;4.90;99.90;;;;;;5000868;28;20200;-71
2021/11/30 07:29:20;;;;;;;9.10;6.75;;;4.90;99.90;;;;;;4994464;28;20203;-71
2021/11/30 07:31:48;;;;;;;7.68;6.90;;;4.90;99.90;;;;;;4989737;28;20211;-69
2021/11/30 07:34:14;;;;;;;7.25;6.60;;;4.90;99.90;;;;;;4991885;28;20674;-70
2021/11/30 07:36:41;;;;;;;7.75;7.07;;;4.90;99.90;;;;;;4997067;28;20222;-71
2021/11/30 07:39:08;;;;;;;6.53;6.03;;;5.00;99.90;;;;;;5006031;28;20206;-71
2021/11/30 07:41:35;;;;;;;7.18;6.55;;;5.00;99.90;;;;;;5011314;28;20741;-68
2021/11/30 07:44:04;;;;;;;8.10;6.60;;;5.00;99.90;;;;;;4997882;28;20588;-69
2021/11/30 07:46:31;;;;;;;14.82;10.50;;;5.10;99.90;;;;;;5004093;28;20200;-68
2021/11/30 07:48:59;;;;;;;9.18;6.90;;;5.10;99.90;;;;;;4993553;28;20199;-71
2021/11/30 07:51:27;;;;;;;8.32;7.38;;;5.10;99.90;;;;;;4999607;28;20222;-69
2021/11/30 07:53:54;;;;;;;8.15;7.07;;;5.20;99.90;;;;;;5000488;28;20219;-69
2021/11/30 07:56:21;;;;;;;24.60;16.02;;;5.20;99.90;;;;;;4991301;28;20227;-70
2021/11/30 07:58:47;;;;;;;7.68;6.95;;;5.20;99.90;;;;;;4995745;28;20207;-70
2021/11/30 08:01:15;;;;;;;9.60;6.22;;;5.30;99.90;;;;;;5001116;28;20258;-70
2021/11/30 08:03:43;;;;;;;8.90;6.93;;;5.30;99.90;;;;;;5002752;28;20223;-70
2021/11/30 08:06:11;;;;;;;9.73;8.73;;;5.40;99.90;;;;;;4996095;28;20310;-70
2021/11/30 08:08:40;;;;;;;9.90;7.05;;;5.40;99.90;;;;;;5002361;28;20310;-70
2021/11/30 08:11:08;;;;;;;10.38;9.15;;;5.50;99.90;;;;;;5002306;28;20207;-70
2021/11/30 08:13:34;;;;;;;7.30;6.60;;;5.50;99.90;;;;;;4997357;28;20203;-70
2021/11/30 08:16:01;;;;;;;9.30;8.35;;;5.60;99.90;;;;;;4991801;28;20223;-71
2021/11/30 08:18:28;;;;;;;9.18;7.60;;;5.60;99.90;;;;;;4996729;28;20664;-70
2021/11/30 08:20:56;;;;;;;8.75;7.25;;;5.60;99.90;;;;;;4998743;28;20207;-71
2021/11/30 08:23:24;;;;;;;11.18;9.02;;;5.70;99.90;;;;;;5004060;28;20278;-71
2021/11/30 08:25:51;;;;;;;8.55;7.50;;;5.70;99.90;;;;;;5006599;28;20667;-71
2021/11/30 08:28:18;;;;;;;9.05;7.30;;;5.70;99.90;;;;;;5012911;28;20204;-70
2021/11/30 08:30:46;;;;;;;7.75;6.85;;;5.80;99.90;;;;;;5004331;28;20196;-71
2021/11/30 08:33:13;;;;;;;9.07;6.93;;;5.80;99.90;;;;;;5005801;28;20206;-71
2021/11/30 08:35:40;;;;;;;6.90;5.47;;;5.90;99.90;;;;;;5002469;28;20691;-70
2021/11/30 08:38:07;;;;;;;10.77;6.20;;;6.00;99.90;;;;;;5018244;28;20645;-71
2021/11/30 08:40:36;;;;;;;11.70;5.32;;;6.00;99.90;;;;;;5010862;28;20298;-70
2021/11/30 08:43:03;;;;;;;5.70;4.50;;;6.00;99.90;;;;;;5004066;28;20236;-70
2021/11/30 08:45:30;;;;;;;9.98;5.32;;;6.10;99.90;;;;;;4991309;28;20255;-70
2021/11/30 08:47:57;;;;;;;8.32;4.82;;;6.10;99.90;;;;;;4991415;28;20621;-71
2021/11/30 08:50:24;;;;;;;10.32;4.63;;;6.10;99.90;;;;;;4990258;28;20667;-70
2021/11/30 08:52:52;;;;;;;10.30;5.20;;;6.20;99.90;;;;;;4995656;28;20207;-71
2021/11/30 08:55:18;;;;;;;7.90;4.40;;;6.20;99.90;;;;;;4997949;28;20243;-71
2021/11/30 08:57:47;;;;;;;5.63;3.60;;;6.30;99.90;;;;;;4998280;28;20222;-71
2021/11/30 09:00:16;;;;;;;9.57;4.88;;;6.30;99.90;;;;;;5001292;28;20203;-70
2021/11/30 09:02:43;;;;;;;7.15;3.30;;;6.40;99.90;;;;;;4995718;28;20199;-70
2021/11/30 09:05:11;;;;;;;5.25;4.07;;;6.30;99.90;;;;;;5007544;28;20695;-70
2021/11/30 09:07:37;;;;;;;9.88;3.83;;;6.40;99.90;;;;;;5011199;28;20200;-70
2021/11/30 09:10:05;;;;;;;13.27;6.05;;;6.40;99.90;;;;;;5010575;28;20214;-70
2021/11/30 09:12:32;;;;;;;9.35;5.65;;;6.50;99.90;;;;;;5010020;28;20230;-70
2021/11/30 09:15:00;;;;;;;11.18;4.75;;;6.50;99.90;;;;;;4990715;28;20223;-70
2021/11/30 09:17:27;;;;;;;13.02;7.80;;;6.50;99.90;;;;;;4991082;28;20215;-70
2021/11/30 09:19:53;;;;;;;17.15;8.50;;;6.50;99.90;;;;;;4990216;28;20343;-70
2021/11/30 09:22:21;;;;;;;12.88;6.03;;;6.50;99.90;;;;;;4990256;28;20216;-70
2021/11/30 09:24:47;;;;;;;12.13;5.57;;;6.60;99.90;;;;;;5010283;28;20253;-69
2021/11/30 09:27:14;;;;;;;8.43;5.50;;;6.60;99.90;;;;;;5010616;28;20207;-70
2021/11/30 09:29:41;;;;;;;9.10;4.45;;;6.70;99.90;;;;;;5010772;28;20215;-69
2021/11/30 09:32:10;;;;;;;10.07;3.42;;;6.70;99.90;;;;;;5010492;28;20738;-70
2021/11/30 09:34:37;;;;;;;6.85;4.88;;;6.70;99.90;;;;;;5007130;28;20299;-69
2021/11/30 09:37:07;;;;;;;10.32;3.00;;;6.70;99.90;;;;;;4997658;28;20211;-70
2021/11/30 09:39:34;;;;;;;7.60;4.22;;;6.70;99.90;;;;;;5010240;28;20617;-70
2021/11/30 09:42:03;;;;;;;5.20;2.85;;;6.80;99.90;;;;;;5010035;28;20207;-69
2021/11/30 09:44:30;;;;;;;7.68;3.35;;;6.80;99.90;;;;;;5012295;28;20336;-69
2021/11/30 09:46:58;;;;;;;8.82;3.33;;;6.80;99.90;;;;;;5014011;28;20589;-70
2021/11/30 09:49:26;;;;;;;5.85;2.28;;;6.80;99.90;;;;;;5013256;28;20285;-69
2021/11/30 09:51:52;;;;;;;9.00;3.28;;;6.80;99.90;;;;;;5012761;28;20218;-70
2021/11/30 09:54:19;;;;;;;13.45;2.47;;;6.80;99.90;;;;;;5013961;28;20601;-69
2021/11/30 09:56:46;;;;;;;6.53;2.20;;;6.80;99.90;;;;;;5013457;28;20257;-70
2021/11/30 09:59:13;;;;;;;9.10;2.00;;;6.80;99.90;;;;;;5013715;28;20207;-69
2021/11/30 10:01:39;;;;;;;4.60;1.05;;;6.80;99.90;;;;;;5013372;28;20214;-70
2021/11/30 10:04:06;;;;;;;5.57;1.60;;;6.80;99.90;;;;;;5013682;28;20227;-70
2021/11/30 10:06:34;;;;;;;7.00;2.17;;;6.70;99.90;;;;;;4997380;28;20204;-70
2021/11/30 10:09:01;;;;;;;5.95;1.83;;;6.60;99.90;;;;;;4994020;28;20799;-70
2021/11/30 10:11:31;;;;;;;3.97;2.22;;;6.60;99.90;;;;;;4993627;28;20208;-70
2021/11/30 10:14:24;;;;;;;5.05;1.70;;;6.50;99.90;;;;;;4994252;28;20208;-71
2021/11/30 10:17:16;;;;;;;6.53;2.60;;;6.50;99.90;;;;;;4991864;28;20250;-70
2021/11/30 10:19:44;;;;;;;6.13;2.35;;;6.40;99.90;;;;;;4993931;28;20219;-70
2021/11/30 10:22:12;;;;;;;7.38;2.40;;;6.40;99.90;;;;;;4994052;28;20200;-70
2021/11/30 10:24:39;;;;;;;4.07;1.65;;;6.40;99.90;;;;;;4993456;28;20232;-70
2021/11/30 10:27:05;;;;;;;8.30;1.75;;;6.40;99.90;;;;;;5000493;28;20211;-70
2021/11/30 10:29:41;;;;;;;4.68;1.80;;;6.40;99.90;;;;;;5012771;28;20215;-70
2021/11/30 10:32:07;;;;;;;5.38;3.25;;;6.50;99.90;;;;;;5012882;28;20293;-69
2021/11/30 10:34:34;;;;;;;8.60;2.90;;;6.60;99.90;;;;;;5013044;28;20663;-70
2021/11/30 10:37:11;;;;;;;6.38;2.83;;;6.70;99.90;;;;;;5012232;28;20566;-71
2021/11/30 10:39:41;;;;;;;12.60;2.72;;;6.70;99.90;;;;;;4994239;28;20207;-71
2021/11/30 10:42:16;;;;;;;9.90;1.85;;;6.80;99.90;;;;;;4993221;28;20212;-70
2021/11/30 10:44:44;;;;;;;8.25;2.92;;;6.90;99.90;;;;;;4993719;28;20270;-70
2021/11/30 10:47:13;;;;;;;10.05;3.17;;;6.90;99.90;;;;;;4993260;28;20208;-71
2021/11/30 10:49:49;;;;;;;7.60;1.70;;;6.90;99.90;;;;;;4993343;28;20208;-71
2021/11/30 10:52:18;;;;;;;3.88;1.42;;;7.00;99.90;;;;;;4992733;28;20207;-70
2021/11/30 10:54:46;;;;;;;5.65;2.92;;;7.00;99.90;;;;;;5000252;28;20215;-70
2021/11/30 10:57:12;;;;;;;6.70;2.08;;;7.00;99.90;;;;;;5012265;28;20215;-70
2021/11/30 10:59:39;;;;;;;5.38;1.65;;;7.00;99.90;;;;;;5012314;28;20700;-71
2021/11/30 11:02:06;;;;;;;5.43;2.30;;;7.00;99.90;;;;;;5012753;28;20211;-70
2021/11/30 11:04:34;;;;;;;8.23;2.25;;;7.00;99.90;;;;;;5009893;28;20239;-71
2021/11/30 11:07:06;;;;;;;6.57;1.92;;;7.00;99.90;;;;;;5011533;28;20210;-71
2021/11/30 11:09:39;;;;;;;4.57;1.80;;;7.00;99.90;;;;;;5012089;28;20211;-70
2021/11/30 11:12:10;;;;;;;4.40;1.60;;;7.00;99.90;;;;;;5000696;28;20255;-70
2021/11/30 11:14:45;;;;;;;7.50;2.20;;;7.00;99.90;;;;;;4992817;28;20239;-70
2021/11/30 11:17:25;;;;;;;5.50;1.60;;;7.00;99.90;;;;;;4992614;28;20668;-69
2021/11/30 11:19:52;;;;;;;3.40;1.55;;;7.00;99.90;;;;;;4991755;28;20649;-70
2021/11/30 11:22:22;;;;;;;5.57;1.98;;;7.00;99.90;;;;;;4992099;28;20211;-70
2021/11/30 11:24:50;;;;;;;12.18;2.15;;;7.00;99.90;;;;;;4992442;28;20232;-71
2021/11/30 11:27:28;;;;;;;6.90;2.40;;;7.10;99.90;;;;;;4993754;28;20203;-70
2021/11/30 11:29:55;;;;;;;3.95;1.75;;;7.10;99.90;;;;;;4992609;28;20203;-70
2021/11/30 11:32:23;;;;;;;5.70;1.70;;;7.10;99.90;;;;;;4992351;28;20208;-70
2021/11/30 11:34:50;;;;;;;7.95;2.30;;;7.10;99.90;;;;;;4992257;28;20232;-71
2021/11/30 11:37:17;;;;;;;15.70;4.70;;;7.10;99.90;;;;;;4992321;28;20221;-69
2021/11/30 11:39:44;;;;;;;17.70;3.45;;;7.10;99.90;;;;;;4992236;28;20572;-69
2021/11/30 11:42:13;;;;;;;7.63;1.65;;;7.20;99.90;;;;;;4991934;28;20212;-69
2021/11/30 11:44:41;;;;;;;8.50;2.30;;;7.20;99.90;;;;;;5002889;28;20227;-70
2021/11/30 11:47:10;;;;;;;6.97;1.73;;;7.30;99.90;;;;;;5011759;28;20317;-70
2021/11/30 11:49:39;;;;;;;12.90;3.55;;;7.30;99.90;;;;;;5011736;28;20277;-69
2021/11/30 11:52:18;;;;;;;7.35;2.65;;;7.40;99.90;;;;;;5010898;28;20215;-69
2021/11/30 11:54:58;;;;;;;7.57;2.50;;;7.30;99.90;;;;;;5003544;28;20223;-68
2021/11/30 11:57:24;;;;;;;6.85;2.55;;;7.40;99.90;;;;;;5010910;28;20215;-69
2021/11/30 11:59:52;;;;;;;8.48;2.47;;;7.40;99.90;;;;;;5010752;28;20277;-69
2021/11/30 12:02:21;;;;;;;17.65;3.22;;;7.40;99.90;;;;;;5011333;28;20265;-69
2021/11/30 12:04:51;;;;;;;12.90;2.67;;;7.40;99.90;;;;;;5011034;28;20234;-68
2021/11/30 12:07:18;;;;;;;11.13;2.60;;;7.40;99.90;;;;;;5010332;28;20229;-69
2021/11/30 12:09:45;;;;;;;10.35;3.05;;;7.40;99.90;;;;;;5011108;28;20203;-69
2021/11/30 12:12:22;;;;;;;5.32;2.70;;;7.40;99.90;;;;;;5011294;28;20218;-69
2021/11/30 12:14:50;;;;;;;9.38;2.13;;;7.40;99.90;;;;;;5011523;28;20309;-70
2021/11/30 12:17:21;;;;;;;8.43;3.20;;;7.40;99.90;;;;;;5000541;28;20208;-69
2021/11/30 12:19:50;;;;;;;13.50;4.18;;;7.50;99.90;;;;;;5006041;28;20199;-68
2021/11/30 12:23:00;;;;;;;9.52;2.50;;;7.40;99.90;;;;;;5010760;28;20601;-69
2021/11/30 12:25:42;;;;;;;7.05;2.25;;;7.40;99.90;;;;;;5000188;28;20253;-70
2021/11/30 12:28:10;;;;;;;5.15;2.20;;;7.40;99.90;;;;;;5007094;28;20203;-70
2021/11/30 12:30:39;;;;;;;5.00;2.08;;;7.40;99.90;;;;;;5010089;28;20234;-70
2021/11/30 12:33:13;;;;;;;13.50;2.40;;;7.40;99.90;;;;;;5006083;28;20339;-70
2021/11/30 12:35:48;;;;;;;8.50;2.15;;;7.40;99.90;;;;;;4990417;28;20235;-69
2021/11/30 12:38:20;;;;;;;9.27;2.42;;;7.40;99.90;;;;;;4991296;28;20221;-69
2021/11/30 12:40:49;;;;;;;8.23;2.45;;;7.40;99.90;;;;;;4990988;28;20208;-70
2021/11/30 12:43:19;;;;;;;7.47;1.90;;;7.40;99.90;;;;;;4991111;28;20270;-70
2021/11/30 12:45:50;;;;;;;8.55;2.67;;;7.40;99.90;;;;;;4991178;28;20282;-70
2021/11/30 12:48:20;;;;;;;9.05;3.58;;;7.40;99.90;;;;;;4991243;28;20626;-69
2021/11/30 12:50:47;;;;;;;9.50;3.20;;;7.40;99.90;;;;;;4991166;28;20692;-70
2021/11/30 12:53:14;;;;;;;3.38;2.80;;;7.40;99.90;;;;;;4991153;28;20697;-69
2021/11/30 12:55:46;;;;;;;19.65;2.33;;;7.40;99.90;;;;;;4991031;28;20231;-69
2021/11/30 12:58:45;;;;;;;3.63;2.35;;;7.40;99.90;;;;;;4991738;28;20207;-69
2021/11/30 13:01:18;;;;;;;3.45;1.65;;;7.40;99.90;;;;;;4990961;28;20215;-69
2021/11/30 13:03:47;;;;;;;2.38;1.52;;;7.50;99.90;;;;;;4991217;28;20680;-69
2021/11/30 13:06:14;;;;;;;8.60;2.08;;;7.40;99.90;;;;;;4990971;28;20271;-69
2021/11/30 13:09:06;;;;;;;6.43;1.70;;;7.40;99.90;;;;;;5001190;28;20216;-69
2021/11/30 13:11:35;;;;;;;9.70;1.98;;;7.40;99.90;;;;;;5000319;28;20206;-69
2021/11/30 13:14:04;;;;;;;5.78;2.33;;;7.30;99.90;;;;;;5010616;28;20586;-69
2021/11/30 13:16:33;;;;;;;4.45;1.20;;;7.30;99.90;;;;;;5007159;28;20203;-68
2021/11/30 13:19:09;;;;;;;5.97;2.30;;;7.30;99.90;;;;;;5013406;28;20210;-68
2021/11/30 13:21:39;;;;;;;5.85;3.00;;;7.30;99.90;;;;;;5013532;28;20310;-69
2021/11/30 13:24:14;;;;;;;7.55;3.72;;;7.30;99.90;;;;;;4997227;28;20204;-69
2021/11/30 13:26:42;;;;;;;9.82;2.83;;;7.30;99.90;;;;;;5004711;28;20292;-70
2021/11/30 13:29:20;;;;;;;6.70;1.40;;;7.30;99.90;;;;;;5014430;28;20283;-69
2021/11/30 13:31:47;;;;;;;3.17;1.45;;;7.30;99.90;;;;;;4994491;28;20691;-68
2021/11/30 13:34:16;;;;;;;3.50;1.63;;;7.40;99.90;;;;;;5009854;28;20222;-70
2021/11/30 13:36:42;;;;;;;6.28;1.95;;;7.30;99.90;;;;;;5003226;28;20200;-72
2021/11/30 13:39:09;;;;;;;2.28;2.05;;;7.30;99.90;;;;;;5015820;28;20292;-69
2021/11/30 13:41:36;;;;;;;8.50;1.55;;;7.30;99.90;;;;;;5000516;28;20294;-69
2021/11/30 13:44:03;;;;;;;8.32;2.20;;;7.30;99.90;;;;;;5000709;28;20574;-69
2021/11/30 13:46:36;;;;;;;7.47;1.80;;;7.20;99.90;;;;;;5012864;28;20234;-68
2021/11/30 13:49:05;;;;;;;5.63;2.08;;;7.20;99.90;;;;;;5000698;28;20684;-69
2021/11/30 13:51:36;;;;;;;10.52;2.03;;;7.20;99.90;;;;;;4992739;28;20208;-68
2021/11/30 13:54:07;;;;;;;4.93;1.98;;;7.20;99.90;;;;;;4993850;28;20686;-68
2021/11/30 13:56:39;;;;;;;3.15;0.95;;;7.20;99.90;;;;;;5004649;28;20207;-69
2021/11/30 13:59:13;;;;;;;4.30;1.70;;;7.20;99.90;;;;;;5003469;28;20669;-69
2021/11/30 14:01:49;;;;;;;4.82;2.35;;;7.20;99.90;;;;;;4993231;28;20227;-68
2021/11/30 14:04:18;;;;;;;2.75;1.52;;;7.10;99.90;;;;;;4994185;28;20277;-68
2021/11/30 14:06:51;;;;;;;9.25;2.33;;;7.00;99.90;;;;;;4992444;28;20647;-68
2021/11/30 14:09:20;;;;;;;10.55;2.13;;;7.00;99.90;;;;;;4998509;28;20206;-68
2021/11/30 14:11:49;;;;;;;3.85;2.00;;;7.00;99.90;;;;;;5013208;28;20348;-68
2021/11/30 14:14:20;;;;;;;3.58;1.85;;;6.90;99.90;;;;;;5012070;28;20587;-67
2021/11/30 14:16:49;;;;;;;11.30;2.65;;;6.90;99.90;;;;;;4998431;28;20203;-68
2021/11/30 14:19:16;;;;;;;2.45;1.90;;;6.90;99.90;;;;;;5006169;28;20200;-68
2021/11/30 14:22:00;;;;;;;7.78;2.88;;;6.90;99.90;;;;;;4992688;28;20699;-69
2021/11/30 14:24:27;;;;;;;9.63;1.58;;;6.90;99.90;;;;;;5001236;28;20246;-68
2021/11/30 14:27:09;;;;;;;3.65;2.25;;;6.90;99.90;;;;;;5012893;28;20292;-69
2021/11/30 14:29:38;;;;;;;3.88;1.40;;;6.90;99.90;;;;;;5003809;28;20603;-69
2021/11/30 14:32:09;;;;;;;6.18;2.55;;;6.90;99.90;;;;;;5006766;28;20211;-68
2021/11/30 14:34:38;;;;;;;6.15;1.70;;;6.80;99.90;;;;;;5004919;28;20314;-68
2021/11/30 14:37:24;;;;;;;5.97;1.50;;;6.80;99.90;;;;;;4992387;28;20627;-68
2021/11/30 14:39:53;;;;;;;7.97;2.70;;;6.70;99.90;;;;;;4992917;28;20286;-69
2021/11/30 14:42:27;;;;;;;8.65;1.70;;;6.70;99.90;;;;;;4996335;28;20200;-69
2021/11/30 14:45:12;;;;;;;6.60;1.90;;;6.70;99.90;;;;;;5000411;28;20227;-69
2021/11/30 14:47:39;;;;;;;9.13;2.25;;;6.60;99.90;;;;;;4993196;28;20585;-69
2021/11/30 14:50:08;;;;;;;6.38;1.50;;;6.60;99.90;;;;;;4994150;28;20259;-69
2021/11/30 14:52:41;;;;;;;4.32;1.92;;;6.60;99.90;;;;;;5012496;28;20655;-70
2021/11/30 14:55:24;;;;;;;1.48;1.38;;;6.50;99.90;;;;;;5009102;28;20220;-70
2021/11/30 14:58:23;;;;;;;8.43;2.80;;;6.50;99.90;;;;;;4993578;28;20204;-71
2021/11/30 15:00:53;;;;;;;6.88;2.38;;;6.50;99.90;;;;;;4992767;28;20668;-70
2021/11/30 15:03:21;;;;;;;15.38;2.50;;;6.50;99.90;;;;;;5010671;28;20286;-70
2021/11/30 15:05:50;;;;;;;8.48;2.10;;;6.50;99.90;;;;;;5000967;28;20251;-70
2021/11/30 15:08:36;;;;;;;9.77;2.33;;;6.50;99.90;;;;;;5002280;28;20219;-70
2021/11/30 15:11:12;;;;;;;8.20;1.98;;;6.50;99.90;;;;;;4999736;28;20214;-69
2021/11/30 15:13:43;;;;;;;6.50;3.20;;;6.50;99.90;;;;;;5001724;28;20207;-71
2021/11/30 15:16:24;;;;;;;4.40;2.83;;;6.50;99.90;;;;;;5000422;28;20289;-70
2021/11/30 15:19:12;;;;;;;6.10;2.55;;;6.50;99.90;;;;;;5001517;28;20200;-71
2021/11/30 15:21:42;;;;;;;9.25;2.33;;;6.50;99.90;;;;;;5011563;28;20547;-70
2021/11/30 15:24:12;;;;;;;8.65;2.22;;;6.50;99.90;;;;;;4999335;28;20295;-71
2021/11/30 15:26:41;;;;;;;7.00;2.42;;;6.50;99.90;;;;;;4992641;28;20278;-71
2021/11/30 15:29:09;;;;;;;6.95;2.25;;;6.40;99.90;;;;;;4992362;28;20200;-70
2021/11/30 15:31:36;;;;;;;9.13;2.15;;;6.40;99.90;;;;;;4992116;28;20208;-71
2021/11/30 15:34:03;;;;;;;5.45;2.00;;;6.40;99.90;;;;;;4992199;28;20261;-70
2021/11/30 15:36:30;;;;;;;2.10;1.55;;;6.40;99.90;;;;;;5011651;28;20194;-70
2021/11/30 15:38:57;;;;;;;7.30;2.20;;;6.50;99.90;;;;;;5013320;28;20672;-71
2021/11/30 15:41:25;;;;;;;5.10;2.20;;;6.50;99.90;;;;;;4991294;28;20700;-70
2021/11/30 15:43:52;;;;;;;6.88;1.75;;;6.50;99.90;;;;;;4999896;28;20218;-69
2021/11/30 15:46:18;;;;;;;4.45;2.17;;;6.50;99.90;;;;;;5017059;28;20616;-72
2021/11/30 15:48:45;;;;;;;9.68;2.28;;;6.50;99.90;;;;;;4994105;28;20211;-71
2021/11/30 15:51:20;;;;;;;7.10;2.45;;;6.50;99.90;;;;;;5001298;28;20206;-69
2021/11/30 15:53:47;;;;;;;5.38;1.60;;;6.60;99.90;;;;;;5011733;28;20210;-69
2021/11/30 15:58:59;;;;;;;10.27;1.98;;;6.60;99.90;;;;;;5019692;28;20311;-70
2021/11/30 16:01:26;;;;;;;7.82;1.58;;;6.60;99.90;;;;;;5000306;28;20208;-70
2021/11/30 16:03:53;;;;;;;4.57;1.65;;;6.50;99.90;;;;;;5011475;28;20207;-70
2021/11/30 16:06:19;;;;;;;5.18;1.73;;;6.50;99.90;;;;;;5008883;28;20230;-70
2021/11/30 16:08:47;;;;;;;6.22;1.90;;;6.50;99.90;;;;;;5006107;28;20207;-70
2021/11/30 16:11:14;;;;;;;9.75;2.70;;;6.40;99.90;;;;;;5002965;28;20300;-70
2021/11/30 16:13:41;;;;;;;10.25;2.50;;;6.40;99.90;;;;;;4991423;28;20212;-68
2021/11/30 16:16:09;;;;;;;7.00;1.70;;;6.40;99.90;;;;;;4991675;28;20228;-70
2021/11/30 16:18:36;;;;;;;5.10;2.33;;;6.40;99.90;;;;;;4991853;28;20206;-70
2021/11/30 16:21:02;;;;;;;2.67;1.85;;;6.40;99.90;;;;;;4990152;28;20230;-70
2021/11/30 16:23:32;;;;;;;8.77;1.92;;;6.40;99.90;;;;;;4991258;28;20608;-69
2021/11/30 16:25:58;;;;;;;4.75;1.88;;;6.40;99.90;;;;;;4990877;28;20228;-70
2021/11/30 16:28:26;;;;;;;5.00;2.55;;;6.40;99.90;;;;;;4990928;28;20222;-69
2021/11/30 16:30:55;;;;;;;5.18;1.80;;;6.40;99.90;;;;;;5004668;28;20293;-70
2021/11/30 16:33:23;;;;;;;6.40;2.20;;;6.40;99.90;;;;;;5009185;28;20211;-70
2021/11/30 16:35:50;;;;;;;6.47;2.42;;;6.50;99.90;;;;;;5005479;28;20223;-69
2021/11/30 16:38:16;;;;;;;5.40;2.30;;;6.50;99.90;;;;;;5008884;28;20218;-70
2021/11/30 16:40:45;;;;;;;5.03;2.08;;;6.50;99.90;;;;;;5003551;28;20204;-71
2021/11/30 16:43:11;;;;;;;7.13;2.45;;;6.50;99.90;;;;;;5009683;28;20200;-70
2021/11/30 16:45:38;;;;;;;3.25;1.90;;;6.40;99.90;;;;;;4995926;28;20223;-69
2021/11/30 16:48:05;;;;;;;2.72;1.10;;;6.40;99.90;;;;;;5011718;28;20269;-70
2021/11/30 16:50:34;;;;;;;4.72;2.08;;;6.40;99.90;;;;;;4996835;28;20211;-68
2021/11/30 16:53:01;;;;;;;2.65;1.83;;;6.40;99.90;;;;;;5006709;28;20200;-69
2021/11/30 16:55:28;;;;;;;7.00;5.10;;;6.40;99.90;;;;;;4999128;28;20219;-70
2021/11/30 16:57:54;;;;;;;8.10;4.35;;;6.40;99.90;;;;;;4990521;28;20235;-71
2021/11/30 17:00:21;;;;;;;6.60;2.95;;;6.30;99.90;;;;;;4993877;28;20294;-70
2021/11/30 17:02:48;;;;;;;21.95;3.08;;;6.30;99.90;;;;;;5004700;28;20218;-73
2021/11/30 17:05:16;;;;;;;7.53;3.10;;;6.30;99.90;;;;;;5008979;28;20238;-69
2021/11/30 17:07:45;;;;;;;5.13;1.75;;;6.20;99.90;;;;;;5006684;28;20308;-70
2021/11/30 17:10:13;;;;;;;9.07;2.47;;;6.20;99.90;;;;;;5009745;28;20261;-70
2021/11/30 17:12:41;;;;;;;6.72;2.55;;;6.20;99.90;;;;;;4992085;28;20199;-68
2021/11/30 17:15:11;;;;;;;8.35;2.85;;;6.20;99.90;;;;;;4996234;28;20231;-70
2021/11/30 17:17:38;;;;;;;8.77;3.42;;;6.10;99.90;;;;;;4996816;28;20612;-70
2021/11/30 17:20:06;;;;;;;8.13;3.67;;;6.10;99.90;;;;;;5001167;28;20203;-70
2021/11/30 17:22:32;;;;;;;7.25;3.55;;;6.00;99.90;;;;;;5006792;28;20289;-69
2021/11/30 17:25:00;;;;;;;24.02;4.07;;;6.00;99.90;;;;;;5007032;28;20242;-70
2021/11/30 17:27:28;;;;;;;3.30;2.50;;;5.90;99.90;;;;;;5007076;28;20235;-70
2021/11/30 17:29:55;;;;;;;4.45;1.80;;;5.90;99.90;;;;;;4995074;28;20653;-70
2021/11/30 17:32:23;;;;;;;8.13;2.08;;;5.90;99.90;;;;;;4990803;28;20250;-70
2021/11/30 17:34:50;;;;;;;2.67;2.08;;;5.90;99.90;;;;;;4991005;28;20626;-70
2021/11/30 17:37:17;;;;;;;7.55;2.92;;;5.90;99.90;;;;;;4990225;28;20211;-69
2021/11/30 17:39:46;;;;;;;12.07;5.65;;;5.90;99.90;;;;;;5005499;28;20266;-70
2021/11/30 17:42:14;;;;;;;10.45;2.92;;;5.90;99.90;;;;;;5006524;28;20290;-70
2021/11/30 17:44:41;;;;;;;6.13;2.92;;;5.90;99.90;;;;;;5010205;28;20607;-70
2021/11/30 17:47:08;;;;;;;6.38;2.08;;;5.90;99.90;;;;;;5002505;28;20216;-70
2021/11/30 17:49:36;;;;;;;2.70;1.88;;;5.90;99.90;;;;;;5002328;28;20270;-69
2021/11/30 17:52:03;;;;;;;5.22;2.17;;;5.90;99.90;;;;;;4999751;28;20687;-69
2021/11/30 17:54:30;;;;;;;5.28;1.83;;;5.90;99.90;;;;;;5008910;28;20585;-69
2021/11/30 17:56:57;;;;;;;2.35;1.55;;;5.90;99.90;;;;;;5007089;28;20299;-69
2021/11/30 17:59:26;;;;;;;7.82;2.05;;;5.90;99.90;;;;;;5008437;28;20206;-69
2021/11/30 18:01:52;;;;;;;9.90;1.92;;;5.90;99.90;;;;;;5008906;28;20566;-70
2021/11/30 18:04:20;;;;;;;6.78;2.03;;;5.90;99.90;;;;;;5007198;28;20960;-70
2021/11/30 18:06:46;;;;;;;2.72;1.77;;;5.90;99.90;;;;;;5006437;28;20234;-69
2021/11/30 18:09:13;;;;;;;4.18;2.17;;;5.90;99.90;;;;;;5009282;28;20223;-70